South Holston Observed Data For Previous 48 Hours

Caption
Day and Hour Reservoir Elevation (behind dam)* Tailwater Elevation (below dam)* Average Hourly Discharge*
6/23/2017 2 AM EDT 1,729.35 1,488.99 2,298
6/23/2017 3 AM EDT 1,729.34 1,488.88 2,297
6/23/2017 4 AM EDT 1,729.32 1,488.97 2,297
6/23/2017 5 AM EDT 1,729.31 1,488.95 2,289
6/23/2017 6 AM EDT 1,729.29 1,488.91 2,289
6/23/2017 7 AM EDT 1,729.28 1,488.96 2,286
6/23/2017 8 AM EDT 1,729.26 1,488.92 2,291
6/23/2017 9 AM EDT 1,729.24 1,488.93 2,294
6/23/2017 10 AM EDT 1,729.23 1,488.91 2,289
6/23/2017 11 AM EDT 1,729.22 1,488.90 2,289
6/23/2017 12 PM EDT 1,729.20 1,488.87 2,287
6/23/2017 1 PM EDT 1,729.20 1,488.93 2,285
6/23/2017 2 PM EDT 1,729.19 1,488.90 2,280
6/23/2017 3 PM EDT 1,729.17 1,488.92 2,286
6/23/2017 4 PM EDT 1,729.16 1,488.93 2,279
6/23/2017 5 PM EDT 1,729.14 1,488.93 2,292
6/23/2017 6 PM EDT 1,729.13 1,488.90 2,286
6/23/2017 7 PM EDT 1,729.12 1,488.89 2,287
6/23/2017 8 PM EDT 1,729.11 1,488.90 2,281
6/23/2017 9 PM EDT 1,729.09 1,488.91 2,290
6/23/2017 10 PM EDT 1,729.07 1,488.96 2,291
6/23/2017 11 PM EDT 1,729.07 1,488.98 2,292
6/24/2017 12 AM EDT 1,729.06 1,488.88 2,283
6/24/2017 1 AM EDT 1,729.07 1,488.92 2,282
6/24/2017 2 AM EDT 1,729.06 1,486.38 143
6/24/2017 3 AM EDT 1,729.07 1,486.13 10
6/24/2017 4 AM EDT 1,729.08 1,485.91 10
6/24/2017 5 AM EDT 1,729.08 1,485.69 10
6/24/2017 6 AM EDT 1,729.08 1,485.49 10
6/24/2017 7 AM EDT 1,729.09 1,485.32 10
6/24/2017 8 AM EDT 1,729.09 1,485.43 10
6/24/2017 9 AM EDT 1,729.10 1,486.85 1,350
6/24/2017 10 AM EDT 1,729.09 1,486.27 10
6/24/2017 11 AM EDT 1,729.11 1,486.03 10
6/24/2017 12 PM EDT 1,729.12 1,485.80 10
6/24/2017 1 PM EDT 1,729.13 1,485.59 10
6/24/2017 2 PM EDT 1,729.14 1,485.41 10
6/24/2017 3 PM EDT 1,729.15 1,485.26 10
6/24/2017 4 PM EDT 1,729.17 1,485.32 10
6/24/2017 5 PM EDT 1,729.16 1,486.82 1,370
6/24/2017 6 PM EDT 1,729.17 1,486.27 10
6/24/2017 7 PM EDT 1,729.19 1,486.03 10
6/24/2017 8 PM EDT 1,729.20 1,485.80 10
6/24/2017 9 PM EDT 1,729.20 1,485.59 10
6/24/2017 10 PM EDT 1,729.21 1,485.39 10
6/24/2017 11 PM EDT 1,729.22 1,485.25 10
6/25/2017 12 AM EDT 1,729.23 1,485.30 10
6/25/2017 1 AM EDT 1,729.22 1,486.73 1,365
6/25/2017 2 AM EDT 1,729.22 1,486.27 10
6/25/2017 3 AM EDT 1,729.23 1,486.02 10
6/25/2017 4 AM EDT 1,729.24 1,485.80 10
6/25/2017 5 AM EDT 1,729.24 1,485.58 10
6/25/2017 6 AM EDT 1,729.24 1,485.39 10
6/25/2017 7 AM EDT 1,729.25 1,485.25 10
6/25/2017 8 AM EDT 1,729.26 1,485.33 10
6/25/2017 9 AM EDT 1,729.25 1,486.81 1,380

Elevations are in feet above sea level. Discharges are in cubic feet per second and are reported at the end of the hour.